Time,TemperatureF,DewpointF,PressureIn,WindDirection,WindDirectionDegrees,WindSpeedMPH,WindSpeedGustMPH,Humidity,HourlyPrecipIn,Conditions,Clouds,dailyrainin,SolarRadiationWatts/m^2,SoftwareType,DateUTC
2013-06-11 00:02:00,66.0,26.0,-100.00,SSW,207,10.0,22.0,22,0.00,,,0.00,0.000000,,2013-06-11 07:02:00,
2013-06-11 00:12:00,66.0,26.0,-100.00,SSW,207,10.0,22.0,22,0.00,,,0.00,0.000000,,2013-06-11 07:12:00,
2013-06-11 00:22:00,66.0,26.0,-100.00,SSW,207,10.0,22.0,22,0.00,,,0.00,0.000000,,2013-06-11 07:22:00,
2013-06-11 00:52:00,68.0,27.0,-100.00,WSW,254,11.0,23.0,21,0.00,,,0.00,0.000000,,2013-06-11 07:52:00,
2013-06-11 01:02:00,68.0,27.0,-100.00,WSW,254,11.0,23.0,21,0.00,,,0.00,0.000000,,2013-06-11 08:02:00,
2013-06-11 01:12:00,68.0,27.0,-100.00,WSW,254,11.0,23.0,21,0.00,,,0.00,0.000000,,2013-06-11 08:12:00,
2013-06-11 01:22:00,68.0,27.0,-100.00,WSW,254,11.0,23.0,21,0.00,,,0.00,0.000000,,2013-06-11 08:22:00,
2013-06-11 01:52:00,68.0,28.0,-100.00,WNW,283,11.0,28.0,22,0.00,,,-99.99,0.000000,,2013-06-11 08:52:00,
2013-06-11 02:02:00,68.0,28.0,-100.00,WNW,283,11.0,28.0,22,0.00,,,-99.99,0.000000,,2013-06-11 09:02:00,
2013-06-11 02:12:00,68.0,28.0,-100.00,WNW,283,11.0,28.0,22,0.00,,,-99.99,0.000000,,2013-06-11 09:12:00,
2013-06-11 02:22:00,68.0,28.0,-100.00,WNW,283,11.0,28.0,22,0.00,,,-99.99,0.000000,,2013-06-11 09:22:00,
2013-06-11 02:53:00,69.0,29.0,-100.00,WNW,289,8.0,24.0,22,0.00,,,0.00,0.000000,,2013-06-11 09:53:00,
2013-06-11 03:03:00,69.0,29.0,-100.00,WNW,289,8.0,24.0,22,0.00,,,0.00,0.000000,,2013-06-11 10:03:00,
2013-06-11 03:12:00,69.0,29.0,-100.00,WNW,289,8.0,24.0,22,0.00,,,0.00,0.000000,,2013-06-11 10:12:00,
2013-06-11 03:22:00,69.0,29.0,-100.00,WNW,289,8.0,24.0,22,0.00,,,0.00,0.000000,,2013-06-11 10:22:00,
2013-06-11 03:52:00,70.0,28.0,-100.00,WSW,252,7.0,17.0,21,0.00,,,0.00,0.000000,,2013-06-11 10:52:00,
2013-06-11 04:02:00,70.0,28.0,-100.00,WSW,252,7.0,17.0,21,0.00,,,0.00,0.000000,,2013-06-11 11:02:00,
2013-06-11 04:12:00,70.0,28.0,-100.00,WSW,252,7.0,17.0,21,0.00,,,0.00,0.000000,,2013-06-11 11:12:00,
2013-06-11 04:22:00,70.0,28.0,-100.00,WSW,252,7.0,17.0,21,0.00,,,0.00,0.000000,,2013-06-11 11:22:00,
2013-06-11 04:52:00,64.0,25.0,-100.00,SSW,199,10.0,14.0,23,0.00,,,-99.99,0.000000,,2013-06-11 11:52:00,
2013-06-11 05:02:00,64.0,25.0,-100.00,SSW,199,10.0,14.0,23,0.00,,,-99.99,0.000000,,2013-06-11 12:02:00,
2013-06-11 05:12:00,64.0,25.0,-100.00,SSW,199,10.0,14.0,23,0.00,,,-99.99,0.000000,,2013-06-11 12:12:00,
2013-06-11 05:22:00,64.0,25.0,-100.00,SSW,199,10.0,14.0,23,0.00,,,-99.99,0.000000,,2013-06-11 12:22:00,
2013-06-11 05:52:00,64.0,26.0,-100.00,SSW,207,12.0,18.0,24,0.00,,,-99.99,0.000000,,2013-06-11 12:52:00,
2013-06-11 06:02:00,64.0,26.0,-100.00,SSW,207,12.0,18.0,24,0.00,,,-99.99,0.000000,,2013-06-11 13:02:00,
2013-06-11 06:12:00,64.0,26.0,-100.00,SSW,207,12.0,18.0,24,0.00,,,-99.99,0.000000,,2013-06-11 13:12:00,
2013-06-11 06:22:00,64.0,26.0,-100.00,SSW,207,12.0,18.0,24,0.00,,,-99.99,0.000000,,2013-06-11 13:22:00,
2013-06-11 06:52:00,73.0,28.0,-100.00,SW,227,1.0,16.0,19,0.00,,,0.00,46.000000,,2013-06-11 13:52:00,
2013-06-11 07:02:00,73.0,28.0,-100.00,SW,227,1.0,16.0,19,0.00,,,0.00,46.000000,,2013-06-11 14:02:00,
2013-06-11 07:12:00,73.0,28.0,-100.00,SW,227,1.0,16.0,19,0.00,,,0.00,46.000000,,2013-06-11 14:12:00,
2013-06-11 07:22:00,73.0,28.0,-100.00,SW,227,1.0,16.0,19,0.00,,,0.00,46.000000,,2013-06-11 14:22:00,
2013-06-11 07:53:00,78.0,25.0,-100.00,NNW,339,4.0,7.0,14,0.00,,,0.00,221.000000,,2013-06-11 14:53:00,
2013-06-11 08:02:00,78.0,25.0,-100.00,NNW,339,4.0,7.0,14,0.00,,,0.00,221.000000,,2013-06-11 15:02:00,
2013-06-11 08:53:00,77.0,24.0,-100.00,ENE,70,1.0,8.0,14,0.00,,,0.00,432.000000,,2013-06-11 15:53:00,
2013-06-11 09:02:00,77.0,24.0,-100.00,ENE,70,1.0,8.0,14,0.00,,,0.00,432.000000,,2013-06-11 16:02:00,
2013-06-11 09:12:00,77.0,24.0,-100.00,ENE,70,1.0,8.0,14,0.00,,,0.00,432.000000,,2013-06-11 16:12:00,
2013-06-11 09:22:00,77.0,24.0,-100.00,ENE,70,1.0,8.0,14,0.00,,,0.00,432.000000,,2013-06-11 16:22:00,
2013-06-11 09:52:00,79.0,22.0,-100.00,SSE,159,5.0,9.0,12,0.00,,,0.00,712.000000,,2013-06-11 16:52:00,
2013-06-11 10:02:00,79.0,22.0,-100.00,SSE,159,5.0,9.0,12,0.00,,,0.00,712.000000,,2013-06-11 17:02:00,
2013-06-11 10:52:00,84.0,24.0,-100.00,SSE,163,6.0,11.0,11,0.00,,,0.00,887.000000,,2013-06-11 17:52:00,
2013-06-11 11:02:00,84.0,24.0,-100.00,SSE,163,6.0,11.0,11,0.00,,,0.00,887.000000,,2013-06-11 18:02:00,
2013-06-11 11:52:00,85.0,22.0,-100.00,South,174,8.0,13.0,10,0.00,,,0.00,1102.000000,,2013-06-11 18:52:00,
2013-06-11 12:02:00,85.0,22.0,-100.00,South,174,8.0,13.0,10,0.00,,,0.00,1102.000000,,2013-06-11 19:02:00,
2013-06-11 12:52:00,85.0,20.0,-100.00,South,186,11.0,19.0,9,0.00,,,-99.99,1253.000000,,2013-06-11 19:52:00,
2013-06-11 13:02:00,85.0,20.0,-100.00,South,186,11.0,19.0,9,0.00,,,-99.99,1253.000000,,2013-06-11 20:02:00,
2013-06-11 13:52:00,87.0,16.0,-100.00,South,180,11.0,22.0,7,0.00,,,0.00,1220.000000,,2013-06-11 20:52:00,
2013-06-11 14:02:00,87.0,16.0,-100.00,South,180,11.0,22.0,7,0.00,,,0.00,1220.000000,,2013-06-11 21:02:00,
2013-06-11 14:53:00,88.0,13.0,-100.00,SW,225,10.0,22.0,6,0.00,,,0.00,1166.000000,,2013-06-11 21:53:00,
2013-06-11 15:03:00,88.0,13.0,-100.00,SW,225,10.0,22.0,6,0.00,,,0.00,1166.000000,,2013-06-11 22:03:00,
2013-06-11 15:52:00,90.0,10.0,-100.00,SSW,205,14.0,26.0,5,0.00,,,0.00,1123.000000,,2013-06-11 22:52:00,
2013-06-11 16:02:00,90.0,10.0,-100.00,SSW,205,14.0,26.0,5,0.00,,,0.00,1123.000000,,2013-06-11 23:02:00,
2013-06-11 16:52:00,89.0,4.0,-100.00,SSW,205,18.0,34.0,4,0.00,,,0.00,925.000000,,2013-06-11 23:52:00,
2013-06-11 17:02:00,89.0,4.0,-100.00,SSW,205,18.0,34.0,4,0.00,,,0.00,925.000000,,2013-06-12 00:02:00,
2013-06-11 17:52:00,90.0,10.0,-100.00,SSW,206,21.0,36.0,5,0.00,,,0.00,734.000000,,2013-06-12 00:52:00,
2013-06-11 18:02:00,90.0,10.0,-100.00,SSW,206,21.0,36.0,5,0.00,,,0.00,734.000000,,2013-06-12 01:02:00,
2013-06-11 18:52:00,86.0,11.0,-100.00,SW,225,14.0,36.0,6,0.00,,,0.00,452.000000,,2013-06-12 01:52:00,
2013-06-11 19:02:00,86.0,11.0,-100.00,SW,225,14.0,36.0,6,0.00,,,0.00,452.000000,,2013-06-12 02:02:00,
2013-06-11 19:52:00,84.0,10.0,-100.00,SW,224,13.0,24.0,6,0.00,,,0.00,180.000000,,2013-06-12 02:52:00,
2013-06-11 20:02:00,84.0,10.0,-100.00,SW,224,13.0,24.0,6,0.00,,,0.00,180.000000,,2013-06-12 03:02:00,
2013-06-11 20:53:00,82.0,18.0,-100.00,WNW,300,9.0,18.0,9,0.00,,,0.00,22.000000,,2013-06-12 03:53:00,
2013-06-11 21:02:00,82.0,18.0,-100.00,WNW,300,9.0,18.0,9,0.00,,,0.00,22.000000,,2013-06-12 04:02:00,
2013-06-11 21:52:00,79.0,20.0,-100.00,SW,217,3.0,19.0,11,0.00,,,0.00,0.000000,,2013-06-12 04:52:00,
2013-06-11 22:02:00,79.0,20.0,-100.00,SW,217,3.0,19.0,11,0.00,,,0.00,0.000000,,2013-06-12 05:02:00,
2013-06-11 22:52:00,76.0,23.0,-100.00,SSW,213,10.0,15.0,14,0.00,,,0.00,0.000000,,2013-06-12 05:52:00,
2013-06-11 23:02:00,76.0,23.0,-100.00,SSW,213,10.0,15.0,14,0.00,,,0.00,0.000000,,2013-06-12 06:02:00,
2013-06-11 23:12:00,76.0,23.0,-100.00,SSW,213,10.0,15.0,14,0.00,,,0.00,0.000000,,2013-06-12 06:12:00,
2013-06-11 23:22:00,76.0,23.0,-100.00,SSW,213,10.0,15.0,14,0.00,,,0.00,0.000000,,2013-06-12 06:22:00,
2013-06-11 23:52:00,75.0,29.0,-100.00,SW,215,12.0,18.0,18,0.00,,,0.00,0.000000,,2013-06-12 06:52:00,